Airfield :
LOGIN :

Register | Disclaimer

   EN    FR    IT 

 










Legend :    VFR   Marginal VFR   IFR   Intensive IFR   Very Intensive IFR
Visi :
Ceiling :
>= 8 km
>= 3000ft
5 to 8 km
1000 to 3000 ft
1500m to 5 km
500 to 1000 ft
800 to 1500m
200 to 500 ft
< 800m
< 200 ft
Symbols :   Thunderstorms  Fog  Heavy snow  Heavy precipitations  Wind > 20 kt
SIGMETs :     Misc.  Thunderstorms  Icing  Turbulence  Mountain Waves  Volcanic Ashes






- Airport Elevation : 32 ft
- IATA code : LKZ


EGUL - RAF Lakenheath

CURRENT METAR :
  • 220055Z 22010KT 9999 SCT150 09/06 A2937 RMK AO2A SLP949 T00890063 $

EXPIRED METARs :
  • 212355Z AUTO 21012KT 9999 FEW038 OVC150 10/07 A2939 RMK AO2 SLP956 60000 T00970073 10121 20097 401220088 58006 $
  • 212255Z AUTO 21011KT 9999 FEW160 10/08 A2941 RMK AO2 SLP963 T01040080 $
  • 212155Z 21014KT 9999 SCT029 11/09 A2942 RMK AO2A SLP966 T01110090 $
  • 212055Z 22012KT 9999 CLR 12/09 A2941 RMK AO2A SLP963 60000 T01150092 58001 $

TAF TAF EGUL
Valid from the 21 at 22:00 until the 23 at 04:00 UTC


212200Z 2122/2304 20012G18KT 9999 FEW010 SCT025 SCT040 QNH2915INS
BECMG 2200/2201 22012KT 9999 SCT009 SCT020 BKN030 QNH2897INS
TEMPO 2203/2209 19015G25KT BKN006 OVC009 510004
BECMG 2209/2210 18015G30KT 9999 SCT009 SCT015 BKN030 WS015/19033KT 510006 QNH2870INS
TEMPO 2210/2216 18020G35KT 5000 -TSRAGS BKN030CB
BECMG 2216/2217 27015G25KT 9000 -SHRA SCT015 QNH2890INS TX11/2122Z TN09/2202Z LAST NO AMDS AFT 2122 NEXT 2206



MET'MAP, your aeronautical weather chart ! - Copyright ORBIFLY December 2007 - Disclaimer

ORBIFLY MET'MAP TEAM :

Programming & Development : Alexandra Zaïnal
Original concept : Baudouin d'Aumeries
Technical & hardware support : Manuel Goepfert
Assistance : Marc-Olivier Méhu




SOURCES & CREDITS :

   NOAA